West Boylston, MA (01583)

1:00 AM EDT on August 25, 2016 (GMT -0400)
West Boylston center | | Change Station

Elev 600 ft 42.36 °N, 71.79 °W | Updated 8 seconds ago

Clear
Clear
68.4 °F
Feels Like 68.4 °F
N
0.0
Wind Variable Wind from North
Gusts 0.0 mph

Today
High -- | Low -- °F
--% Chance of Precip.
Yesterday
High -- | Low -- °F
Precip. -- in
Pressure 30.16 in
Visibility 10.0 miles
Clouds Clear
Dew Point 62 °F
Humidity 80%
Rainfall 0.00 in
Snow Depth Not available.
6:05 AM 7:31 PM
Waning Gibbous, 49% visible
METAR KORH 250454Z AUTO 23011KT 10SM CLR 18/15 A3017 RMK AO2 SLP211 T01830150 402720150
Pressure 30.16 in
Visibility 10.0 miles
Clouds Clear
Dew Point 62 °F
Humidity 80%
Rainfall 0.00 in
Snow Depth Not available.
6:05 AM 7:31 PM
Waning Gibbous, 49% visible
METAR KORH 250454Z AUTO 23011KT 10SM CLR 18/15 A3017 RMK AO2 SLP211 T01830150 402720150

10-Day Weather Forecast

Almanac

Astronomy

Aug. 25, 2016 Rise Set
Actual Time
Civil Twilight
Nautical Twilight
Astronomical Twilight
Moon
Length of Visible Light
Length of Day
Tomorrow will be .
, % of the Moon is Illuminated

Today's Extremes

State Highs State Lows

Community

WunderPhotos

Upload Photos

1,934,798 photos uploaded!

WunderBlog® & News

Nearby

Air Quality

  Air Quality AQ Index Pollutant
Not available.

Snow Depth

Station Depth Elevation

Earthquake Activity

City Distance Mag. Time & Date
Minimum magnitude displayed is 2.5.

Coastal Water Temperatures

Place Temperature

Stations

Nearby Weather Stations

Station Location Temp. Windchill Dew Point Humidity Wind Precip. Elev Updated Type
                   

Watches & Warnings

There are currently no watches in effect.